sensor_id;sensor_type;location;lat;lon;timestamp;temperature;humidity
44767;DHT22;30487;48.716;9.272;2023-11-19T00:00:25;7.80;99.90
44767;DHT22;30487;48.716;9.272;2023-11-19T00:02:51;7.80;99.90
44767;DHT22;30487;48.716;9.272;2023-11-19T00:05:16;7.80;99.90
44767;DHT22;30487;48.716;9.272;2023-11-19T00:07:42;7.80;99.90
44767;DHT22;30487;48.716;9.272;2023-11-19T00:10:12;7.80;99.90
44767;DHT22;30487;48.716;9.272;2023-11-19T00:12:42;7.80;99.90
44767;DHT22;30487;48.716;9.272;2023-11-19T00:15:10;7.80;99.90
44767;DHT22;30487;48.716;9.272;2023-11-19T00:17:39;7.80;99.90
44767;DHT22;30487;48.716;9.272;2023-11-19T00:20:06;7.80;99.90
44767;DHT22;30487;48.716;9.272;2023-11-19T00:22:33;7.80;99.90
44767;DHT22;30487;48.716;9.272;2023-11-19T00:24:58;7.80;99.90
44767;DHT22;30487;48.716;9.272;2023-11-19T00:27:25;7.80;99.90
44767;DHT22;30487;48.716;9.272;2023-11-19T00:29:50;7.80;99.90
44767;DHT22;30487;48.716;9.272;2023-11-19T00:32:16;7.90;99.90
44767;DHT22;30487;48.716;9.272;2023-11-19T00:34:44;7.90;99.90
44767;DHT22;30487;48.716;9.272;2023-11-19T00:37:10;7.90;99.90
44767;DHT22;30487;48.716;9.272;2023-11-19T00:39:35;7.90;99.90
44767;DHT22;30487;48.716;9.272;2023-11-19T00:42:01;8.00;99.90
44767;DHT22;30487;48.716;9.272;2023-11-19T00:44:26;8.00;99.90
44767;DHT22;30487;48.716;9.272;2023-11-19T00:46:52;8.00;99.90
44767;DHT22;30487;48.716;9.272;2023-11-19T00:49:17;8.00;99.90
44767;DHT22;30487;48.716;9.272;2023-11-19T00:51:43;8.10;99.90
44767;DHT22;30487;48.716;9.272;2023-11-19T00:54:10;8.10;99.90
44767;DHT22;30487;48.716;9.272;2023-11-19T00:56:36;8.10;99.90
44767;DHT22;30487;48.716;9.272;2023-11-19T00:59:02;8.20;99.90
44767;DHT22;30487;48.716;9.272;2023-11-19T01:01:29;8.20;99.90
44767;DHT22;30487;48.716;9.272;2023-11-19T01:03:55;8.20;99.90
44767;DHT22;30487;48.716;9.272;2023-11-19T01:06:32;8.20;99.90
44767;DHT22;30487;48.716;9.272;2023-11-19T01:08:58;8.20;99.90
44767;DHT22;30487;48.716;9.272;2023-11-19T01:11:24;8.20;99.90
44767;DHT22;30487;48.716;9.272;2023-11-19T01:13:50;8.30;99.90
44767;DHT22;30487;48.716;9.272;2023-11-19T01:16:17;8.30;99.90
44767;DHT22;30487;48.716;9.272;2023-11-19T01:18:43;8.30;99.90
44767;DHT22;30487;48.716;9.272;2023-11-19T01:21:08;8.30;99.90
44767;DHT22;30487;48.716;9.272;2023-11-19T01:23:34;8.30;99.90
44767;DHT22;30487;48.716;9.272;2023-11-19T01:26:00;8.30;99.90
44767;DHT22;30487;48.716;9.272;2023-11-19T01:28:26;8.40;99.90
44767;DHT22;30487;48.716;9.272;2023-11-19T01:30:52;8.30;99.90
44767;DHT22;30487;48.716;9.272;2023-11-19T01:33:17;8.40;99.90
44767;DHT22;30487;48.716;9.272;2023-11-19T01:35:43;8.40;99.90
44767;DHT22;30487;48.716;9.272;2023-11-19T01:38:08;8.40;99.90
44767;DHT22;30487;48.716;9.272;2023-11-19T01:40:34;8.40;99.90
44767;DHT22;30487;48.716;9.272;2023-11-19T01:43:02;8.50;99.90
44767;DHT22;30487;48.716;9.272;2023-11-19T01:45:29;8.50;99.90
44767;DHT22;30487;48.716;9.272;2023-11-19T01:47:56;8.50;99.90
44767;DHT22;30487;48.716;9.272;2023-11-19T01:50:23;8.50;99.90
44767;DHT22;30487;48.716;9.272;2023-11-19T01:52:52;8.50;99.90
44767;DHT22;30487;48.716;9.272;2023-11-19T01:55:18;8.60;99.90
44767;DHT22;30487;48.716;9.272;2023-11-19T01:57:46;8.60;99.90
44767;DHT22;30487;48.716;9.272;2023-11-19T02:00:12;8.60;99.90
44767;DHT22;30487;48.716;9.272;2023-11-19T02:02:42;8.60;99.90
44767;DHT22;30487;48.716;9.272;2023-11-19T02:05:09;8.60;99.90
44767;DHT22;30487;48.716;9.272;2023-11-19T02:07:36;8.60;99.90
44767;DHT22;30487;48.716;9.272;2023-11-19T02:10:01;8.60;99.90
44767;DHT22;30487;48.716;9.272;2023-11-19T02:12:27;8.60;99.90
44767;DHT22;30487;48.716;9.272;2023-11-19T02:14:59;8.60;99.90
44767;DHT22;30487;48.716;9.272;2023-11-19T02:17:29;8.60;99.90
44767;DHT22;30487;48.716;9.272;2023-11-19T02:19:57;8.60;99.90
44767;DHT22;30487;48.716;9.272;2023-11-19T02:22:22;8.60;99.90
44767;DHT22;30487;48.716;9.272;2023-11-19T02:24:51;8.60;99.90
44767;DHT22;30487;48.716;9.272;2023-11-19T02:29:50;8.60;99.90
44767;DHT22;30487;48.716;9.272;2023-11-19T02:32:16;8.60;99.90
44767;DHT22;30487;48.716;9.272;2023-11-19T02:34:42;8.60;99.90
44767;DHT22;30487;48.716;9.272;2023-11-19T02:37:07;8.70;99.90
44767;DHT22;30487;48.716;9.272;2023-11-19T02:39:33;8.70;99.90
44767;DHT22;30487;48.716;9.272;2023-11-19T02:41:59;8.70;99.90
44767;DHT22;30487;48.716;9.272;2023-11-19T02:44:25;8.70;99.90
44767;DHT22;30487;48.716;9.272;2023-11-19T02:46:53;8.70;99.90
44767;DHT22;30487;48.716;9.272;2023-11-19T02:49:19;8.80;99.90
44767;DHT22;30487;48.716;9.272;2023-11-19T02:51:44;8.80;99.90
44767;DHT22;30487;48.716;9.272;2023-11-19T02:54:10;8.90;99.90
44767;DHT22;30487;48.716;9.272;2023-11-19T02:56:36;8.90;99.90
44767;DHT22;30487;48.716;9.272;2023-11-19T02:59:02;8.90;99.90
44767;DHT22;30487;48.716;9.272;2023-11-19T03:01:40;8.90;99.90
44767;DHT22;30487;48.716;9.272;2023-11-19T03:04:09;9.00;99.90
44767;DHT22;30487;48.716;9.272;2023-11-19T03:06:37;9.10;99.90
44767;DHT22;30487;48.716;9.272;2023-11-19T03:09:03;9.00;99.90
44767;DHT22;30487;48.716;9.272;2023-11-19T03:11:33;9.10;99.90
44767;DHT22;30487;48.716;9.272;2023-11-19T03:13:59;9.10;99.90
44767;DHT22;30487;48.716;9.272;2023-11-19T03:16:24;9.30;99.90
44767;DHT22;30487;48.716;9.272;2023-11-19T03:18:50;9.40;99.90
44767;DHT22;30487;48.716;9.272;2023-11-19T03:21:16;9.40;99.90
44767;DHT22;30487;48.716;9.272;2023-11-19T03:23:41;9.40;99.90
44767;DHT22;30487;48.716;9.272;2023-11-19T03:26:10;9.40;99.90
44767;DHT22;30487;48.716;9.272;2023-11-19T03:28:36;9.50;99.90
44767;DHT22;30487;48.716;9.272;2023-11-19T03:31:04;9.60;99.90
44767;DHT22;30487;48.716;9.272;2023-11-19T03:33:30;9.60;99.90
44767;DHT22;30487;48.716;9.272;2023-11-19T03:35:58;9.50;99.90
44767;DHT22;30487;48.716;9.272;2023-11-19T03:38:24;9.50;99.90
44767;DHT22;30487;48.716;9.272;2023-11-19T03:40:50;9.50;99.90
44767;DHT22;30487;48.716;9.272;2023-11-19T03:43:15;9.50;99.90
44767;DHT22;30487;48.716;9.272;2023-11-19T03:45:41;9.50;99.90
44767;DHT22;30487;48.716;9.272;2023-11-19T03:48:06;9.50;99.90
44767;DHT22;30487;48.716;9.272;2023-11-19T03:50:32;9.50;99.90
44767;DHT22;30487;48.716;9.272;2023-11-19T03:52:58;9.50;99.90
44767;DHT22;30487;48.716;9.272;2023-11-19T03:55:23;9.60;99.90
44767;DHT22;30487;48.716;9.272;2023-11-19T03:57:49;9.60;99.90
44767;DHT22;30487;48.716;9.272;2023-11-19T04:00:15;9.50;99.90
44767;DHT22;30487;48.716;9.272;2023-11-19T04:02:41;9.50;99.90
44767;DHT22;30487;48.716;9.272;2023-11-19T04:05:07;9.50;99.90
44767;DHT22;30487;48.716;9.272;2023-11-19T04:07:33;9.60;99.90
44767;DHT22;30487;48.716;9.272;2023-11-19T04:09:59;9.60;99.90
44767;DHT22;30487;48.716;9.272;2023-11-19T04:12:24;9.60;99.90
44767;DHT22;30487;48.716;9.272;2023-11-19T04:14:50;9.60;99.90
44767;DHT22;30487;48.716;9.272;2023-11-19T04:17:16;9.60;99.90
44767;DHT22;30487;48.716;9.272;2023-11-19T04:19:41;9.60;99.90
44767;DHT22;30487;48.716;9.272;2023-11-19T04:22:10;9.60;99.90
44767;DHT22;30487;48.716;9.272;2023-11-19T04:24:36;9.60;99.90
44767;DHT22;30487;48.716;9.272;2023-11-19T04:27:02;9.50;99.90
44767;DHT22;30487;48.716;9.272;2023-11-19T04:29:30;9.50;99.90
44767;DHT22;30487;48.716;9.272;2023-11-19T04:31:56;9.50;99.90
44767;DHT22;30487;48.716;9.272;2023-11-19T04:34:21;9.50;99.90
44767;DHT22;30487;48.716;9.272;2023-11-19T04:36:47;9.50;99.90
44767;DHT22;30487;48.716;9.272;2023-11-19T04:39:13;9.60;99.90
44767;DHT22;30487;48.716;9.272;2023-11-19T04:41:47;9.50;99.90
44767;DHT22;30487;48.716;9.272;2023-11-19T04:44:14;9.60;99.90
44767;DHT22;30487;48.716;9.272;2023-11-19T04:46:41;9.70;99.90
44767;DHT22;30487;48.716;9.272;2023-11-19T04:49:08;9.70;99.90
44767;DHT22;30487;48.716;9.272;2023-11-19T04:51:43;9.70;99.90
44767;DHT22;30487;48.716;9.272;2023-11-19T04:54:09;9.80;99.90
44767;DHT22;30487;48.716;9.272;2023-11-19T04:56:38;9.80;99.90
44767;DHT22;30487;48.716;9.272;2023-11-19T04:59:04;9.90;99.90
44767;DHT22;30487;48.716;9.272;2023-11-19T05:01:31;10.00;99.90
44767;DHT22;30487;48.716;9.272;2023-11-19T05:03:57;10.00;99.90
44767;DHT22;30487;48.716;9.272;2023-11-19T05:06:27;10.10;99.90
44767;DHT22;30487;48.716;9.272;2023-11-19T05:08:53;10.00;99.90
44767;DHT22;30487;48.716;9.272;2023-11-19T05:11:19;10.00;99.90
44767;DHT22;30487;48.716;9.272;2023-11-19T05:13:45;10.00;99.90
44767;DHT22;30487;48.716;9.272;2023-11-19T05:16:11;10.00;99.90
44767;DHT22;30487;48.716;9.272;2023-11-19T05:18:39;10.00;99.90
44767;DHT22;30487;48.716;9.272;2023-11-19T05:21:05;10.00;99.90
44767;DHT22;30487;48.716;9.272;2023-11-19T05:23:32;10.00;99.90
44767;DHT22;30487;48.716;9.272;2023-11-19T05:26:00;10.00;99.90
44767;DHT22;30487;48.716;9.272;2023-11-19T05:28:25;10.00;99.90
44767;DHT22;30487;48.716;9.272;2023-11-19T05:30:51;10.00;99.90
44767;DHT22;30487;48.716;9.272;2023-11-19T05:33:17;10.00;99.90
44767;DHT22;30487;48.716;9.272;2023-11-19T05:35:42;10.10;99.90
44767;DHT22;30487;48.716;9.272;2023-11-19T05:38:08;10.10;99.90
44767;DHT22;30487;48.716;9.272;2023-11-19T05:40:35;10.10;99.90
44767;DHT22;30487;48.716;9.272;2023-11-19T05:43:01;10.10;99.90
44767;DHT22;30487;48.716;9.272;2023-11-19T05:45:26;10.10;99.90
44767;DHT22;30487;48.716;9.272;2023-11-19T05:47:52;10.10;99.90
44767;DHT22;30487;48.716;9.272;2023-11-19T05:50:18;10.10;99.90
44767;DHT22;30487;48.716;9.272;2023-11-19T05:52:43;10.10;99.90
44767;DHT22;30487;48.716;9.272;2023-11-19T05:55:09;10.10;99.90
44767;DHT22;30487;48.716;9.272;2023-11-19T05:57:36;10.10;99.90
44767;DHT22;30487;48.716;9.272;2023-11-19T06:00:02;10.10;99.90
44767;DHT22;30487;48.716;9.272;2023-11-19T06:02:32;10.10;99.90
44767;DHT22;30487;48.716;9.272;2023-11-19T06:04:58;10.10;99.90
44767;DHT22;30487;48.716;9.272;2023-11-19T06:07:24;10.10;99.90
44767;DHT22;30487;48.716;9.272;2023-11-19T06:09:50;10.10;99.90
44767;DHT22;30487;48.716;9.272;2023-11-19T06:12:16;10.10;99.90
44767;DHT22;30487;48.716;9.272;2023-11-19T06:14:41;10.10;99.90
44767;DHT22;30487;48.716;9.272;2023-11-19T06:17:07;10.10;99.90
44767;DHT22;30487;48.716;9.272;2023-11-19T06:19:34;10.10;99.90
44767;DHT22;30487;48.716;9.272;2023-11-19T06:21:59;10.10;99.90
44767;DHT22;30487;48.716;9.272;2023-11-19T06:24:25;10.20;99.90
44767;DHT22;30487;48.716;9.272;2023-11-19T06:26:50;10.20;99.90
44767;DHT22;30487;48.716;9.272;2023-11-19T06:29:16;10.20;99.90
44767;DHT22;30487;48.716;9.272;2023-11-19T06:31:45;10.20;99.90
44767;DHT22;30487;48.716;9.272;2023-11-19T06:34:11;10.20;99.90
44767;DHT22;30487;48.716;9.272;2023-11-19T06:36:36;10.20;99.90
44767;DHT22;30487;48.716;9.272;2023-11-19T06:39:02;10.20;99.90
44767;DHT22;30487;48.716;9.272;2023-11-19T06:41:28;10.20;99.90
44767;DHT22;30487;48.716;9.272;2023-11-19T06:43:54;10.30;99.90
44767;DHT22;30487;48.716;9.272;2023-11-19T06:46:20;10.20;99.90
44767;DHT22;30487;48.716;9.272;2023-11-19T06:48:46;10.20;99.90
44767;DHT22;30487;48.716;9.272;2023-11-19T06:51:12;10.20;99.90
44767;DHT22;30487;48.716;9.272;2023-11-19T06:53:38;10.20;99.90
44767;DHT22;30487;48.716;9.272;2023-11-19T06:56:06;10.20;99.90
44767;DHT22;30487;48.716;9.272;2023-11-19T06:58:36;10.20;99.90
44767;DHT22;30487;48.716;9.272;2023-11-19T07:01:01;10.20;99.90
44767;DHT22;30487;48.716;9.272;2023-11-19T07:03:27;10.30;99.90
44767;DHT22;30487;48.716;9.272;2023-11-19T07:05:52;10.30;99.90
44767;DHT22;30487;48.716;9.272;2023-11-19T07:08:18;10.30;99.90
44767;DHT22;30487;48.716;9.272;2023-11-19T07:10:44;10.30;99.90
44767;DHT22;30487;48.716;9.272;2023-11-19T07:13:09;10.30;99.90
44767;DHT22;30487;48.716;9.272;2023-11-19T07:15:35;10.30;99.90
44767;DHT22;30487;48.716;9.272;2023-11-19T07:18:00;10.30;99.90
44767;DHT22;30487;48.716;9.272;2023-11-19T07:20:26;10.40;99.90
44767;DHT22;30487;48.716;9.272;2023-11-19T07:22:52;10.50;99.90
44767;DHT22;30487;48.716;9.272;2023-11-19T07:25:19;10.60;99.90
44767;DHT22;30487;48.716;9.272;2023-11-19T07:27:44;10.60;99.90
44767;DHT22;30487;48.716;9.272;2023-11-19T07:30:12;10.60;99.90
44767;DHT22;30487;48.716;9.272;2023-11-19T07:32:38;10.60;99.90
44767;DHT22;30487;48.716;9.272;2023-11-19T07:35:04;10.60;99.90
44767;DHT22;30487;48.716;9.272;2023-11-19T07:37:31;10.60;99.90
44767;DHT22;30487;48.716;9.272;2023-11-19T07:39:57;10.50;99.90
44767;DHT22;30487;48.716;9.272;2023-11-19T07:42:22;10.50;99.90
44767;DHT22;30487;48.716;9.272;2023-11-19T07:44:49;10.60;99.90
44767;DHT22;30487;48.716;9.272;2023-11-19T07:47:14;10.60;99.90
44767;DHT22;30487;48.716;9.272;2023-11-19T07:49:40;10.60;99.90
44767;DHT22;30487;48.716;9.272;2023-11-19T07:52:05;10.60;99.90
44767;DHT22;30487;48.716;9.272;2023-11-19T07:54:32;10.60;99.90
44767;DHT22;30487;48.716;9.272;2023-11-19T07:56:57;10.60;99.90
44767;DHT22;30487;48.716;9.272;2023-11-19T07:59:23;10.60;99.90
44767;DHT22;30487;48.716;9.272;2023-11-19T08:01:49;10.60;99.90
44767;DHT22;30487;48.716;9.272;2023-11-19T08:04:14;10.70;99.90
44767;DHT22;30487;48.716;9.272;2023-11-19T08:06:40;10.70;99.90
44767;DHT22;30487;48.716;9.272;2023-11-19T08:09:06;10.70;99.90
44767;DHT22;30487;48.716;9.272;2023-11-19T08:11:32;10.80;99.90
44767;DHT22;30487;48.716;9.272;2023-11-19T08:13:58;10.80;99.90
44767;DHT22;30487;48.716;9.272;2023-11-19T08:16:24;10.80;99.90
44767;DHT22;30487;48.716;9.272;2023-11-19T08:18:49;10.80;99.90
44767;DHT22;30487;48.716;9.272;2023-11-19T08:21:15;10.80;99.90
44767;DHT22;30487;48.716;9.272;2023-11-19T08:23:40;10.80;99.90
44767;DHT22;30487;48.716;9.272;2023-11-19T08:26:06;10.90;99.90
44767;DHT22;30487;48.716;9.272;2023-11-19T08:28:32;10.90;99.90
44767;DHT22;30487;48.716;9.272;2023-11-19T08:30:59;10.90;99.90
44767;DHT22;30487;48.716;9.272;2023-11-19T08:33:26;10.90;99.90
44767;DHT22;30487;48.716;9.272;2023-11-19T08:35:51;11.00;99.90
44767;DHT22;30487;48.716;9.272;2023-11-19T08:38:17;11.10;99.90
44767;DHT22;30487;48.716;9.272;2023-11-19T08:40:42;11.20;99.90
44767;DHT22;30487;48.716;9.272;2023-11-19T08:43:08;11.30;99.90
44767;DHT22;30487;48.716;9.272;2023-11-19T08:45:33;11.40;99.90
44767;DHT22;30487;48.716;9.272;2023-11-19T08:47:59;11.60;99.90
44767;DHT22;30487;48.716;9.272;2023-11-19T08:50:25;11.80;99.90
44767;DHT22;30487;48.716;9.272;2023-11-19T08:52:50;11.90;99.90
44767;DHT22;30487;48.716;9.272;2023-11-19T08:55:16;11.90;99.90
44767;DHT22;30487;48.716;9.272;2023-11-19T08:57:42;11.90;99.90
44767;DHT22;30487;48.716;9.272;2023-11-19T09:00:07;11.80;99.90
44767;DHT22;30487;48.716;9.272;2023-11-19T09:02:37;11.80;99.90
44767;DHT22;30487;48.716;9.272;2023-11-19T09:05:04;11.80;99.90
44767;DHT22;30487;48.716;9.272;2023-11-19T09:07:29;11.80;99.90
44767;DHT22;30487;48.716;9.272;2023-11-19T09:09:58;12.00;99.90
44767;DHT22;30487;48.716;9.272;2023-11-19T09:12:23;12.10;99.90
44767;DHT22;30487;48.716;9.272;2023-11-19T09:14:49;12.30;99.90
44767;DHT22;30487;48.716;9.272;2023-11-19T09:17:15;12.90;99.90
44767;DHT22;30487;48.716;9.272;2023-11-19T09:19:40;13.40;99.90
44767;DHT22;30487;48.716;9.272;2023-11-19T09:22:06;13.60;99.90
44767;DHT22;30487;48.716;9.272;2023-11-19T09:24:32;13.60;99.90
44767;DHT22;30487;48.716;9.272;2023-11-19T09:26:57;13.50;99.90
44767;DHT22;30487;48.716;9.272;2023-11-19T09:29:23;13.40;99.90
44767;DHT22;30487;48.716;9.272;2023-11-19T09:31:49;13.30;99.90
44767;DHT22;30487;48.716;9.272;2023-11-19T09:34:14;13.10;99.90
44767;DHT22;30487;48.716;9.272;2023-11-19T09:36:40;13.00;99.90
44767;DHT22;30487;48.716;9.272;2023-11-19T09:39:10;12.90;99.90
44767;DHT22;30487;48.716;9.272;2023-11-19T09:41:35;12.90;99.90
44767;DHT22;30487;48.716;9.272;2023-11-19T09:44:01;13.00;99.90
44767;DHT22;30487;48.716;9.272;2023-11-19T09:46:27;13.10;99.90
44767;DHT22;30487;48.716;9.272;2023-11-19T09:48:53;13.30;99.90
44767;DHT22;30487;48.716;9.272;2023-11-19T09:51:20;13.60;99.90
44767;DHT22;30487;48.716;9.272;2023-11-19T09:53:47;13.70;99.90
44767;DHT22;30487;48.716;9.272;2023-11-19T09:56:12;13.80;99.90
44767;DHT22;30487;48.716;9.272;2023-11-19T09:58:38;14.50;99.90
44767;DHT22;30487;48.716;9.272;2023-11-19T10:01:04;15.40;99.90
44767;DHT22;30487;48.716;9.272;2023-11-19T10:03:33;16.00;99.90
44767;DHT22;30487;48.716;9.272;2023-11-19T10:06:09;16.50;99.90
44767;DHT22;30487;48.716;9.272;2023-11-19T10:08:38;17.10;99.90
44767;DHT22;30487;48.716;9.272;2023-11-19T10:11:07;17.30;99.90
44767;DHT22;30487;48.716;9.272;2023-11-19T10:13:36;18.10;99.90
44767;DHT22;30487;48.716;9.272;2023-11-19T10:16:15;18.50;99.90
44767;DHT22;30487;48.716;9.272;2023-11-19T10:18:48;18.30;99.90
44767;DHT22;30487;48.716;9.272;2023-11-19T10:21:17;18.00;99.90
44767;DHT22;30487;48.716;9.272;2023-11-19T10:23:53;17.70;99.90
44767;DHT22;30487;48.716;9.272;2023-11-19T10:26:20;17.70;99.90
44767;DHT22;30487;48.716;9.272;2023-11-19T10:28:47;17.70;99.90
44767;DHT22;30487;48.716;9.272;2023-11-19T10:31:14;17.50;99.90
44767;DHT22;30487;48.716;9.272;2023-11-19T10:33:39;17.10;99.90
44767;DHT22;30487;48.716;9.272;2023-11-19T10:36:05;16.80;99.90
44767;DHT22;30487;48.716;9.272;2023-11-19T10:38:31;16.40;99.90
44767;DHT22;30487;48.716;9.272;2023-11-19T10:40:56;16.00;99.90
44767;DHT22;30487;48.716;9.272;2023-11-19T10:43:23;15.70;99.90
44767;DHT22;30487;48.716;9.272;2023-11-19T10:45:49;15.70;99.90
44767;DHT22;30487;48.716;9.272;2023-11-19T10:48:15;15.90;99.90
44767;DHT22;30487;48.716;9.272;2023-11-19T10:50:42;16.40;99.90
44767;DHT22;30487;48.716;9.272;2023-11-19T10:53:10;17.20;99.90
44767;DHT22;30487;48.716;9.272;2023-11-19T10:55:38;18.30;99.90
44767;DHT22;30487;48.716;9.272;2023-11-19T10:58:15;19.30;99.90
44767;DHT22;30487;48.716;9.272;2023-11-19T11:00:48;19.60;99.90
44767;DHT22;30487;48.716;9.272;2023-11-19T11:03:18;19.10;99.90
44767;DHT22;30487;48.716;9.272;2023-11-19T11:05:47;18.60;99.90
44767;DHT22;30487;48.716;9.272;2023-11-19T11:08:13;18.50;99.90
44767;DHT22;30487;48.716;9.272;2023-11-19T11:10:52;18.40;99.90
44767;DHT22;30487;48.716;9.272;2023-11-19T11:13:18;19.00;99.90
44767;DHT22;30487;48.716;9.272;2023-11-19T11:15:45;19.60;99.90
44767;DHT22;30487;48.716;9.272;2023-11-19T11:18:12;20.10;99.90
44767;DHT22;30487;48.716;9.272;2023-11-19T11:20:39;19.70;99.90
44767;DHT22;30487;48.716;9.272;2023-11-19T11:26:29;18.80;99.90
44767;DHT22;30487;48.716;9.272;2023-11-19T11:36:58;17.40;99.90
44767;DHT22;30487;48.716;9.272;2023-11-19T11:39:29;17.10;99.90
44767;DHT22;30487;48.716;9.272;2023-11-19T11:50:17;16.20;99.90
44767;DHT22;30487;48.716;9.272;2023-11-19T11:58:08;15.90;99.90
44767;DHT22;30487;48.716;9.272;2023-11-19T12:00:40;15.90;99.90
44767;DHT22;30487;48.716;9.272;2023-11-19T12:03:07;16.50;99.90
44767;DHT22;30487;48.716;9.272;2023-11-19T12:05:38;16.80;99.90
44767;DHT22;30487;48.716;9.272;2023-11-19T12:08:06;16.80;99.90
44767;DHT22;30487;48.716;9.272;2023-11-19T12:10:37;16.70;99.90
44767;DHT22;30487;48.716;9.272;2023-11-19T12:13:05;17.10;99.90
44767;DHT22;30487;48.716;9.272;2023-11-19T12:15:32;17.40;99.90
44767;DHT22;30487;48.716;9.272;2023-11-19T12:17:58;18.30;99.90
44767;DHT22;30487;48.716;9.272;2023-11-19T12:20:25;19.40;99.90
44767;DHT22;30487;48.716;9.272;2023-11-19T12:22:52;19.90;99.90
44767;DHT22;30487;48.716;9.272;2023-11-19T12:25:19;19.60;99.90
44767;DHT22;30487;48.716;9.272;2023-11-19T12:27:52;19.10;99.90
44767;DHT22;30487;48.716;9.272;2023-11-19T12:32:48;18.30;99.90
44767;DHT22;30487;48.716;9.272;2023-11-19T12:35:13;18.50;99.90
44767;DHT22;30487;48.716;9.272;2023-11-19T12:37:43;18.70;99.90
44767;DHT22;30487;48.716;9.272;2023-11-19T12:40:19;18.60;99.90
44767;DHT22;30487;48.716;9.272;2023-11-19T12:42:46;18.70;99.90
44767;DHT22;30487;48.716;9.272;2023-11-19T12:45:13;18.80;99.90
44767;DHT22;30487;48.716;9.272;2023-11-19T12:47:42;18.80;99.90
44767;DHT22;30487;48.716;9.272;2023-11-19T12:50:09;18.90;99.90
44767;DHT22;30487;48.716;9.272;2023-11-19T12:52:36;19.10;99.90
44767;DHT22;30487;48.716;9.272;2023-11-19T12:55:28;19.00;99.90
44767;DHT22;30487;48.716;9.272;2023-11-19T12:57:52;18.70;99.90
44767;DHT22;30487;48.716;9.272;2023-11-19T13:00:22;18.30;99.90
44767;DHT22;30487;48.716;9.272;2023-11-19T13:02:52;18.30;99.90
44767;DHT22;30487;48.716;9.272;2023-11-19T13:05:34;18.70;99.90
44767;DHT22;30487;48.716;9.272;2023-11-19T13:08:09;19.10;99.90
44767;DHT22;30487;48.716;9.272;2023-11-19T13:10:51;19.70;99.90
44767;DHT22;30487;48.716;9.272;2023-11-19T13:13:19;20.30;99.90
44767;DHT22;30487;48.716;9.272;2023-11-19T13:15:45;20.40;98.30
44767;DHT22;30487;48.716;9.272;2023-11-19T13:18:11;20.10;97.50
44767;DHT22;30487;48.716;9.272;2023-11-19T13:20:37;19.60;99.00
44767;DHT22;30487;48.716;9.272;2023-11-19T13:23:04;19.00;99.90
44767;DHT22;30487;48.716;9.272;2023-11-19T13:25:31;18.60;99.90
44767;DHT22;30487;48.716;9.272;2023-11-19T13:27:57;18.40;99.90
44767;DHT22;30487;48.716;9.272;2023-11-19T13:30:23;18.40;99.60
44767;DHT22;30487;48.716;9.272;2023-11-19T13:32:50;18.40;99.30
44767;DHT22;30487;48.716;9.272;2023-11-19T13:35:17;18.40;99.50
44767;DHT22;30487;48.716;9.272;2023-11-19T13:37:43;18.40;99.00
44767;DHT22;30487;48.716;9.272;2023-11-19T13:40:10;18.70;98.90
44767;DHT22;30487;48.716;9.272;2023-11-19T13:42:38;18.90;98.60
44767;DHT22;30487;48.716;9.272;2023-11-19T13:45:11;19.00;98.80
44767;DHT22;30487;48.716;9.272;2023-11-19T13:47:42;18.70;99.30
44767;DHT22;30487;48.716;9.272;2023-11-19T13:50:17;18.40;99.50
44767;DHT22;30487;48.716;9.272;2023-11-19T13:52:44;18.10;99.70
44767;DHT22;30487;48.716;9.272;2023-11-19T13:55:11;17.80;99.20
44767;DHT22;30487;48.716;9.272;2023-11-19T13:57:39;17.70;99.10
44767;DHT22;30487;48.716;9.272;2023-11-19T14:00:06;17.80;99.30
44767;DHT22;30487;48.716;9.272;2023-11-19T14:02:35;17.90;99.30
44767;DHT22;30487;48.716;9.272;2023-11-19T14:05:00;18.20;99.10
44767;DHT22;30487;48.716;9.272;2023-11-19T14:07:26;18.60;98.60
44767;DHT22;30487;48.716;9.272;2023-11-19T14:09:53;18.90;97.40
44767;DHT22;30487;48.716;9.272;2023-11-19T14:12:19;18.80;97.70
44767;DHT22;30487;48.716;9.272;2023-11-19T14:14:45;18.60;98.10
44767;DHT22;30487;48.716;9.272;2023-11-19T14:17:10;18.50;97.60
44767;DHT22;30487;48.716;9.272;2023-11-19T14:19:36;18.20;96.80
44767;DHT22;30487;48.716;9.272;2023-11-19T14:22:03;18.00;97.50
44767;DHT22;30487;48.716;9.272;2023-11-19T14:24:29;17.80;97.30
44767;DHT22;30487;48.716;9.272;2023-11-19T14:26:54;17.60;97.70
44767;DHT22;30487;48.716;9.272;2023-11-19T14:29:23;17.30;98.10
44767;DHT22;30487;48.716;9.272;2023-11-19T14:31:48;17.20;98.50
44767;DHT22;30487;48.716;9.272;2023-11-19T14:34:14;17.30;98.30
44767;DHT22;30487;48.716;9.272;2023-11-19T14:36:41;17.40;98.30
44767;DHT22;30487;48.716;9.272;2023-11-19T14:39:06;17.40;98.20
44767;DHT22;30487;48.716;9.272;2023-11-19T14:41:32;17.20;98.50
44767;DHT22;30487;48.716;9.272;2023-11-19T14:43:58;17.20;98.50
44767;DHT22;30487;48.716;9.272;2023-11-19T14:46:23;17.30;98.40
44767;DHT22;30487;48.716;9.272;2023-11-19T14:48:49;17.40;98.60
44767;DHT22;30487;48.716;9.272;2023-11-19T14:51:14;17.40;98.70
44767;DHT22;30487;48.716;9.272;2023-11-19T14:53:40;17.40;98.40
44767;DHT22;30487;48.716;9.272;2023-11-19T14:56:10;17.20;98.60
44767;DHT22;30487;48.716;9.272;2023-11-19T14:58:36;16.90;99.00
44767;DHT22;30487;48.716;9.272;2023-11-19T15:01:01;16.60;99.40
44767;DHT22;30487;48.716;9.272;2023-11-19T15:03:30;16.50;99.70
44767;DHT22;30487;48.716;9.272;2023-11-19T15:05:56;16.60;99.90
44767;DHT22;30487;48.716;9.272;2023-11-19T15:08:21;16.70;99.90
44767;DHT22;30487;48.716;9.272;2023-11-19T15:10:47;16.60;99.90
44767;DHT22;30487;48.716;9.272;2023-11-19T15:13:13;16.50;99.70
44767;DHT22;30487;48.716;9.272;2023-11-19T15:15:38;16.50;99.90
44767;DHT22;30487;48.716;9.272;2023-11-19T15:18:04;16.40;99.90
44767;DHT22;30487;48.716;9.272;2023-11-19T15:20:30;16.20;99.90
44767;DHT22;30487;48.716;9.272;2023-11-19T15:22:57;15.90;99.90
44767;DHT22;30487;48.716;9.272;2023-11-19T15:25:22;15.70;99.90
44767;DHT22;30487;48.716;9.272;2023-11-19T15:27:48;15.40;99.90
44767;DHT22;30487;48.716;9.272;2023-11-19T15:30:14;15.20;99.90
44767;DHT22;30487;48.716;9.272;2023-11-19T15:32:41;15.00;99.90
44767;DHT22;30487;48.716;9.272;2023-11-19T15:35:09;14.90;99.90
44767;DHT22;30487;48.716;9.272;2023-11-19T15:37:36;14.70;99.90
44767;DHT22;30487;48.716;9.272;2023-11-19T15:40:03;14.60;99.90
44767;DHT22;30487;48.716;9.272;2023-11-19T15:42:31;14.50;99.90
44767;DHT22;30487;48.716;9.272;2023-11-19T15:44:57;14.40;99.90
44767;DHT22;30487;48.716;9.272;2023-11-19T15:47:22;14.20;99.90
44767;DHT22;30487;48.716;9.272;2023-11-19T15:49:48;14.10;99.90
44767;DHT22;30487;48.716;9.272;2023-11-19T15:52:15;14.00;99.90
44767;DHT22;30487;48.716;9.272;2023-11-19T15:54:41;14.00;99.90
44767;DHT22;30487;48.716;9.272;2023-11-19T15:57:07;14.00;99.90
44767;DHT22;30487;48.716;9.272;2023-11-19T15:59:32;14.00;99.90
44767;DHT22;30487;48.716;9.272;2023-11-19T16:01:58;14.00;99.90